Paintsville, Kentucky
Current Conditions -  °F | °C
As of 5:55 AM on Sunday 23 Nov 2014 (Local Time) from KSJS Reporting Station
Overcast Overcast  
Wind Chill: 52°   Ceiling: 10000
Heat Index: 52°   Visibility: 10mi
Dew Point: 33°   Wind: 8mph
Humidity: 49%   Direction: 140°SE
Pressure: 30.08"   Gusts: NA
Location:  37.81°N, 82.81°W
Report Text: KSJS 231055Z AUTO 14007KT 10SM SCT050 OVC100 11/01 A3008 RMK AO2 T01100005
Loading
Personal Weather Stations






























Interactive Weather Map New forecast layout! Learn more

10-Day Weather Forecast

Advertisements
Track Severe Weather on mobile